Darstellungsparameter: Aktuell verwendete Einstellungen:
Skalierung der Graphiken ... ?
xyx+y,   Skalierungsfaktor:      Skalierung: Modus: x, Faktor: 1
Darstellungszeitraum ... ?
Vom - - bis: - -   Zeitraum: 19.08.2016 - 19.08.2016
Min/Max/Avg-Anzeige ... ?
Zeige MMA aktuell
Zeige MMA Monat
Zeige MMA alles
Zeige --A aktuell
Zeige --A Monat
Zeige --A alles
Keine MMA-Anzeige
MMA:
Keine MMA-Graphiken
MMA-Basis: 19.08.2016 - 19.08.2016
Quicknavigation für Darstellung... ?
Tage:      1T, 2T, 3T, 5T -1T -2T -3T -5T +1T +2T +3T +5T
Wochen: 1W, 2W, 3W -1W -2W -3W +1W +2W +3W
Monate: 1M, 3M, 6M -1M -3M -6M +1M +3M +6M
Jahre:    1J, 3J, 5J, 10J -1J -3J -5J -10J +1J +3J +5J +10J
Nutze für die Darstellung ... ?
Originaldaten oder Mittelwerte auf ...
Stundenbasis Tagesbasis Wochenbasis
Monatsbasis Jahresbasis      Datenbasis: Original-Daten
Darstellen als:
Statistik (Auto) Statistik J:M      Darstellung:
Zur Graphik,    zurück zur Übersicht aller Sensoren.
 
Tabellarische Datenbersicht: ?
 
Sensor: Nr:Datum:Temp:Feuchte:Taupunkt:
Aussen-T/F 1 19-08-2016 00:00:00 18.4 C 85 % 15.83 C
2 19-08-2016 00:05:00 18.4 C 85 % 15.83 C
3 19-08-2016 00:10:00 18.4 C 85 % 15.83 C
4 19-08-2016 00:15:00 18.3 C 85 % 15.74 C
5 19-08-2016 00:20:00 18.3 C 85 % 15.74 C
6 19-08-2016 00:25:00 18.2 C 85 % 15.64 C
7 19-08-2016 00:30:00 18 C 86 % 15.62 C
8 19-08-2016 00:35:00 17.8 C 86 % 15.43 C
9 19-08-2016 00:40:00 17.6 C 86 % 15.23 C
10 19-08-2016 00:45:00 17.3 C 87 % 15.12 C
11 19-08-2016 00:50:00 17.2 C 88 % 15.2 C
12 19-08-2016 00:55:00 16.9 C 88 % 14.9 C
13 19-08-2016 01:00:00 16.8 C 89 % 14.98 C
14 19-08-2016 01:05:00 16.7 C 89 % 14.88 C
15 19-08-2016 01:10:00 16.7 C 89 % 14.88 C
16 19-08-2016 01:15:00 16.6 C 90 % 14.95 C
17 19-08-2016 01:20:00 16.4 C 90 % 14.76 C
18 19-08-2016 01:25:00 16.3 C 90 % 14.66 C
19 19-08-2016 01:30:00 16.3 C 90 % 14.66 C
20 19-08-2016 01:35:00 16.2 C 90 % 14.56 C
21 19-08-2016 01:40:00 16.1 C 91 % 14.63 C
22 19-08-2016 01:45:00 16 C 91 % 14.53 C
23 19-08-2016 01:50:00 15.8 C 91 % 14.33 C
24 19-08-2016 01:55:00 15.7 C 91 % 14.24 C
25 19-08-2016 02:00:00 15.7 C 92 % 14.4 C
Sensor: Nr:Datum:Temp:Feuchte:Taupunkt:
Aussen-T/F 26 19-08-2016 02:05:00 15.6 C 92 % 14.31 C
27 19-08-2016 02:10:00 15.6 C 92 % 14.31 C
28 19-08-2016 02:15:00 15.5 C 92 % 14.21 C
29 19-08-2016 02:20:00 15.5 C 93 % 14.37 C
30 19-08-2016 02:25:00 15.5 C 93 % 14.37 C
31 19-08-2016 02:30:00 15.5 C 93 % 14.37 C
32 19-08-2016 02:35:00 15.4 C 93 % 14.27 C
33 19-08-2016 02:40:00 15.3 C 93 % 14.18 C
34 19-08-2016 02:45:00 15.3 C 93 % 14.18 C
35 19-08-2016 02:50:00 15.3 C 93 % 14.18 C
36 19-08-2016 02:55:00 15.3 C 93 % 14.18 C
37 19-08-2016 03:00:00 15.4 C 94 % 14.44 C
38 19-08-2016 03:05:00 15.4 C 93 % 14.27 C
39 19-08-2016 03:10:00 15.3 C 93 % 14.18 C
40 19-08-2016 03:15:00 15.3 C 94 % 14.34 C
41 19-08-2016 03:20:00 15.5 C 94 % 14.54 C
42 19-08-2016 03:25:00 15.4 C 94 % 14.44 C
43 19-08-2016 03:30:00 15.3 C 93 % 14.18 C
44 19-08-2016 03:35:00 15.2 C 93 % 14.08 C
45 19-08-2016 03:40:00 15.1 C 93 % 13.98 C
46 19-08-2016 03:45:00 14.9 C 93 % 13.78 C
47 19-08-2016 03:50:00 14.9 C 93 % 13.78 C
48 19-08-2016 03:55:00 14.8 C 94 % 13.84 C
49 19-08-2016 04:00:00 14.8 C 94 % 13.84 C
50 19-08-2016 04:05:00 14.7 C 93 % 13.58 C
Sensor: Nr:Datum:Temp:Feuchte:Taupunkt:
Aussen-T/F 51 19-08-2016 04:10:00 14.7 C 94 % 13.74 C
52 19-08-2016 04:15:00 14.7 C 94 % 13.74 C
53 19-08-2016 04:20:00 14.7 C 94 % 13.74 C
54 19-08-2016 04:25:00 14.7 C 94 % 13.74 C
55 19-08-2016 04:30:00 14.7 C 94 % 13.74 C
56 19-08-2016 04:35:00 14.8 C 94 % 13.84 C
57 19-08-2016 04:40:00 14.9 C 95 % 14.11 C
58 19-08-2016 04:45:00 14.9 C 95 % 14.11 C
59 19-08-2016 04:50:00 14.9 C 95 % 14.11 C
60 19-08-2016 04:55:00 14.9 C 94 % 13.94 C
61 19-08-2016 05:00:00 14.9 C 95 % 14.11 C
62 19-08-2016 05:05:00 14.9 C 95 % 14.11 C
63 19-08-2016 05:10:00 14.9 C 95 % 14.11 C
64 19-08-2016 05:15:00 14.9 C 95 % 14.11 C
65 19-08-2016 05:20:00 14.9 C 95 % 14.11 C
66 19-08-2016 05:25:00 14.9 C 95 % 14.11 C
67 19-08-2016 05:30:00 14.8 C 95 % 14.01 C
68 19-08-2016 05:35:00 14.8 C 95 % 14.01 C
69 19-08-2016 05:40:00 14.8 C 95 % 14.01 C
70 19-08-2016 05:45:00 14.8 C 95 % 14.01 C
71 19-08-2016 05:50:00 14.8 C 95 % 14.01 C
72 19-08-2016 05:55:00 14.7 C 95 % 13.91 C
73 19-08-2016 06:00:00 14.7 C 95 % 13.91 C
74 19-08-2016 06:05:00 14.7 C 95 % 13.91 C
75 19-08-2016 06:10:00 14.7 C 95 % 13.91 C
Sensor: Nr:Datum:Temp:Feuchte:Taupunkt:
Aussen-T/F 76 19-08-2016 06:15:00 14.7 C 95 % 13.91 C
77 19-08-2016 06:20:00 14.7 C 95 % 13.91 C
78 19-08-2016 06:25:00 14.7 C 95 % 13.91 C
79 19-08-2016 06:30:00 14.7 C 95 % 13.91 C
80 19-08-2016 06:35:00 14.7 C 95 % 13.91 C
81 19-08-2016 06:40:00 14.7 C 95 % 13.91 C
82 19-08-2016 06:45:00 14.7 C 95 % 13.91 C
83 19-08-2016 06:50:00 14.7 C 95 % 13.91 C
84 19-08-2016 06:55:00 14.7 C 95 % 13.91 C
85 19-08-2016 07:00:00 14.8 C 95 % 14.01 C
86 19-08-2016 07:05:00 15 C 95 % 14.21 C
87 19-08-2016 07:10:00 15.1 C 96 % 14.47 C
88 19-08-2016 07:15:00 15.2 C 96 % 14.57 C
89 19-08-2016 07:20:00 15.2 C 95 % 14.4 C
90 19-08-2016 07:25:00 15.3 C 95 % 14.5 C
91 19-08-2016 07:30:00 15.4 C 96 % 14.77 C
92 19-08-2016 07:35:00 15.5 C 95 % 14.7 C
93 19-08-2016 07:40:00 15.6 C 95 % 14.8 C
94 19-08-2016 07:45:00 15.6 C 95 % 14.8 C
95 19-08-2016 07:50:00 15.7 C 95 % 14.9 C
96 19-08-2016 07:55:00 15.7 C 95 % 14.9 C
97 19-08-2016 08:00:00 15.8 C 95 % 15 C
98 19-08-2016 08:05:00 16 C 95 % 15.2 C
99 19-08-2016 08:10:00 16 C 95 % 15.2 C
100 19-08-2016 08:15:00 16.1 C 95 % 15.3 C
Sensor: Nr:Datum:Temp:Feuchte:Taupunkt:
Aussen-T/F 101 19-08-2016 08:20:00 16.2 C 95 % 15.4 C
102 19-08-2016 08:25:00 16.3 C 94 % 15.33 C
103 19-08-2016 08:30:00 16.3 C 94 % 15.33 C
104 19-08-2016 08:35:00 16.4 C 94 % 15.43 C
105 19-08-2016 08:40:00 16.6 C 93 % 15.46 C
106 19-08-2016 08:45:00 16.7 C 94 % 15.73 C
107 19-08-2016 08:50:00 16.8 C 93 % 15.66 C
108 19-08-2016 08:55:00 16.8 C 93 % 15.66 C
109 19-08-2016 09:00:00 16.9 C 92 % 15.59 C
110 19-08-2016 09:05:00 17.1 C 92 % 15.79 C
111 19-08-2016 09:10:00 17.2 C 92 % 15.89 C
112 19-08-2016 09:15:00 17.2 C 91 % 15.72 C
113 19-08-2016 09:20:00 17.3 C 91 % 15.82 C
114 19-08-2016 09:25:00 17.3 C 90 % 15.64 C
115 19-08-2016 09:30:00 17.4 C 90 % 15.74 C
116 19-08-2016 09:35:00 17.5 C 90 % 15.84 C
117 19-08-2016 09:40:00 17.6 C 90 % 15.94 C
118 19-08-2016 09:45:00 17.6 C 89 % 15.77 C
119 19-08-2016 09:50:00 17.6 C 89 % 15.77 C
120 19-08-2016 09:55:00 17.6 C 89 % 15.77 C
121 19-08-2016 10:00:00 17.6 C 89 % 15.77 C
122 19-08-2016 10:05:00 17.7 C 89 % 15.86 C
123 19-08-2016 10:10:00 17.7 C 89 % 15.86 C
124 19-08-2016 10:15:00 17.7 C 90 % 16.04 C
125 19-08-2016 10:20:00 17.8 C 90 % 16.14 C
Sensor: Nr:Datum:Temp:Feuchte:Taupunkt:
Aussen-T/F 126 19-08-2016 10:25:00 17.8 C 90 % 16.14 C
127 19-08-2016 10:30:00 17.9 C 90 % 16.24 C
128 19-08-2016 10:35:00 18 C 90 % 16.34 C
129 19-08-2016 10:40:00 18.2 C 89 % 16.36 C
130 19-08-2016 10:45:00 18.3 C 89 % 16.46 C
131 19-08-2016 10:50:00 18.4 C 89 % 16.55 C
132 19-08-2016 10:55:00 18.4 C 89 % 16.55 C
133 19-08-2016 11:00:00 18.4 C 90 % 16.73 C
134 19-08-2016 11:05:00 18.5 C 90 % 16.83 C
135 19-08-2016 11:10:00 18.6 C 90 % 16.93 C
136 19-08-2016 11:15:00 18.8 C 89 % 16.95 C
137 19-08-2016 11:20:00 19.1 C 88 % 17.07 C
138 19-08-2016 11:25:00 19.4 C 85 % 16.81 C
139 19-08-2016 11:30:00 19.8 C 85 % 17.21 C
140 19-08-2016 11:35:00 20.1 C 84 % 17.31 C
141 19-08-2016 11:40:00 20.4 C 85 % 17.79 C
142 19-08-2016 11:45:00 20.5 C 83 % 17.51 C
143 19-08-2016 11:50:00 20.6 C 82 % 17.42 C
144 19-08-2016 11:55:00 20.9 C 81 % 17.52 C
145 19-08-2016 12:00:00 21.1 C 79 % 17.32 C
146 19-08-2016 12:05:00 21.3 C 78 % 17.31 C
147 19-08-2016 12:10:00 21.5 C 78 % 17.5 C
148 19-08-2016 12:15:00 21.6 C 78 % 17.6 C
149 19-08-2016 12:20:00 21.8 C 73 % 16.75 C
150 19-08-2016 12:25:00 22.1 C 76 % 17.67 C
Sensor: Nr:Datum:Temp:Feuchte:Taupunkt:
Aussen-T/F 151 19-08-2016 12:30:00 22.2 C 73 % 17.13 C
152 19-08-2016 12:35:00 22.3 C 74 % 17.44 C
153 19-08-2016 12:40:00 22.4 C 71 % 16.88 C
154 19-08-2016 12:45:00 22.7 C 69 % 16.72 C
155 19-08-2016 12:50:00 22.9 C 69 % 16.91 C
156 19-08-2016 12:55:00 23.1 C 67 % 16.64 C
157 19-08-2016 13:00:00 23.2 C 66 % 16.5 C
158 19-08-2016 13:05:00 23.3 C 66 % 16.59 C
159 19-08-2016 13:10:00 23.5 C 62 % 15.8 C
160 19-08-2016 13:15:00 23.6 C 61 % 15.64 C
161 19-08-2016 13:20:00 23.7 C 63 % 16.24 C
162 19-08-2016 13:25:00 23.8 C 61 % 15.83 C
163 19-08-2016 13:30:00 23.8 C 60 % 15.57 C
164 19-08-2016 13:35:00 23.9 C 64 % 16.68 C
165 19-08-2016 13:40:00 23.9 C 69 % 17.87 C
166 19-08-2016 13:45:00 23.9 C 66 % 17.16 C
167 19-08-2016 13:50:00 24 C 65 % 17.01 C
168 19-08-2016 13:55:00 24.2 C 72 % 18.83 C
169 19-08-2016 14:00:00 24.2 C 72 % 18.83 C
170 19-08-2016 14:05:00 24.2 C 69 % 18.15 C
171 19-08-2016 14:10:00 24.3 C 63 % 16.81 C
172 19-08-2016 14:15:00 24.6 C 64 % 17.34 C
173 19-08-2016 14:20:00 24.7 C 65 % 17.68 C
174 19-08-2016 14:25:00 24.8 C 63 % 17.28 C
175 19-08-2016 14:30:00 24.8 C 62 % 17.02 C
Sensor: Nr:Datum:Temp:Feuchte:Taupunkt:
Aussen-T/F 176 19-08-2016 14:35:00 24.9 C 62 % 17.12 C
177 19-08-2016 14:40:00 24.9 C 63 % 17.37 C
178 19-08-2016 14:45:00 24.9 C 61 % 16.86 C
179 19-08-2016 14:50:00 25 C 62 % 17.21 C
180 19-08-2016 14:55:00 25 C 63 % 17.47 C
181 19-08-2016 15:00:00 25 C 63 % 17.47 C
182 19-08-2016 15:05:00 25 C 64 % 17.72 C
183 19-08-2016 15:10:00 25 C 65 % 17.96 C
184 19-08-2016 15:15:00 25.1 C 63 % 17.56 C
185 19-08-2016 15:20:00 25.1 C 63 % 17.56 C
186 19-08-2016 15:25:00 25.2 C 65 % 18.15 C
187 19-08-2016 15:30:00 25.2 C 64 % 17.9 C
188 19-08-2016 15:35:00 25.2 C 64 % 17.9 C
189 19-08-2016 15:40:00 25.1 C 66 % 18.3 C
190 19-08-2016 15:45:00 25.1 C 63 % 17.56 C
191 19-08-2016 15:50:00 24.9 C 64 % 17.62 C
192 19-08-2016 15:55:00 24.9 C 66 % 18.11 C
193 19-08-2016 16:00:00 24.7 C 66 % 17.92 C
194 19-08-2016 16:05:00 24.7 C 65 % 17.68 C
195 19-08-2016 16:10:00 24.7 C 71 % 19.09 C
196 19-08-2016 16:15:00 24.7 C 69 % 18.63 C
197 19-08-2016 16:20:00 24.7 C 68 % 18.4 C
198 19-08-2016 16:25:00 24.5 C 67 % 17.97 C
199 19-08-2016 16:30:00 24.4 C 68 % 18.11 C
200 19-08-2016 16:35:00 24.2 C 68 % 17.92 C
Sensor: Nr:Datum:Temp:Feuchte:Taupunkt:
Aussen-T/F 201 19-08-2016 16:40:00 24.1 C 69 % 18.06 C
202 19-08-2016 16:45:00 23.9 C 69 % 17.87 C
203 19-08-2016 16:50:00 23.8 C 70 % 18 C
204 19-08-2016 16:55:00 23.8 C 70 % 18 C
205 19-08-2016 17:00:00 23.8 C 70 % 18 C
206 19-08-2016 17:05:00 23.8 C 70 % 18 C
207 19-08-2016 17:10:00 23.9 C 72 % 18.54 C
208 19-08-2016 17:15:00 24 C 73 % 18.86 C
209 19-08-2016 17:20:00 24.1 C 73 % 18.96 C
210 19-08-2016 17:25:00 24.2 C 72 % 18.83 C
211 19-08-2016 17:30:00 24.3 C 74 % 19.37 C
212 19-08-2016 17:35:00 24.4 C 73 % 19.24 C
213 19-08-2016 17:40:00 24.4 C 75 % 19.68 C
214 19-08-2016 17:45:00 24.6 C 73 % 19.44 C
215 19-08-2016 17:50:00 24.8 C 75 % 20.06 C
216 19-08-2016 17:55:00 24.9 C 76 % 20.38 C
217 19-08-2016 18:00:00 25 C 74 % 20.04 C
218 19-08-2016 18:05:00 24.9 C 75 % 20.16 C
219 19-08-2016 18:10:00 24.8 C 69 % 18.72 C
220 19-08-2016 18:15:00 24.7 C 73 % 19.53 C
221 19-08-2016 18:20:00 24.5 C 76 % 19.99 C
222 19-08-2016 18:25:00 24.2 C 75 % 19.49 C
223 19-08-2016 18:30:00 23.9 C 75 % 19.2 C
224 19-08-2016 18:35:00 23.7 C 75 % 19 C
225 19-08-2016 18:40:00 23.3 C 75 % 18.62 C
Sensor: Nr:Datum:Temp:Feuchte:Taupunkt:
Aussen-T/F 226 19-08-2016 18:45:00 22.9 C 76 % 18.44 C
227 19-08-2016 18:50:00 22.7 C 77 % 18.46 C
228 19-08-2016 18:55:00 22.4 C 77 % 18.17 C
229 19-08-2016 19:00:00 22.2 C 79 % 18.38 C
230 19-08-2016 19:05:00 22.1 C 78 % 18.08 C
231 19-08-2016 19:10:00 21.9 C 80 % 18.29 C
232 19-08-2016 19:15:00 21.8 C 80 % 18.2 C
233 19-08-2016 19:20:00 21.7 C 80 % 18.1 C
234 19-08-2016 19:25:00 21.6 C 81 % 18.2 C
235 19-08-2016 19:30:00 21.6 C 81 % 18.2 C
236 19-08-2016 19:35:00 21.4 C 81 % 18 C
237 19-08-2016 19:40:00 21.3 C 81 % 17.91 C
238 19-08-2016 19:45:00 21.3 C 81 % 17.91 C
239 19-08-2016 19:50:00 21.2 C 81 % 17.81 C
240 19-08-2016 19:55:00 21.2 C 81 % 17.81 C
241 19-08-2016 20:00:00 21.1 C 82 % 17.91 C
242 19-08-2016 20:05:00 21 C 82 % 17.81 C
243 19-08-2016 20:10:00 20.9 C 82 % 17.71 C
244 19-08-2016 20:15:00 20.8 C 82 % 17.61 C
245 19-08-2016 20:20:00 20.7 C 83 % 17.71 C
246 19-08-2016 20:25:00 20.7 C 83 % 17.71 C
247 19-08-2016 20:30:00 20.6 C 84 % 17.8 C
248 19-08-2016 20:35:00 20.5 C 84 % 17.7 C
249 19-08-2016 20:40:00 20.4 C 84 % 17.61 C
250 19-08-2016 20:45:00 20.3 C 85 % 17.7 C
Sensor: Nr:Datum:Temp:Feuchte:Taupunkt:
Aussen-T/F 251 19-08-2016 20:50:00 20.3 C 85 % 17.7 C
252 19-08-2016 20:55:00 20.2 C 85 % 17.6 C
253 19-08-2016 21:00:00 20.2 C 86 % 17.78 C
254 19-08-2016 21:05:00 20.1 C 86 % 17.68 C
255 19-08-2016 21:10:00 20.1 C 86 % 17.68 C
256 19-08-2016 21:15:00 20.1 C 86 % 17.68 C
257 19-08-2016 21:20:00 20 C 86 % 17.59 C
258 19-08-2016 21:25:00 19.9 C 86 % 17.49 C
259 19-08-2016 21:30:00 19.9 C 86 % 17.49 C
260 19-08-2016 21:35:00 19.8 C 87 % 17.57 C
261 19-08-2016 21:40:00 19.8 C 86 % 17.39 C
262 19-08-2016 21:45:00 19.8 C 86 % 17.39 C
263 19-08-2016 21:50:00 19.8 C 85 % 17.21 C
264 19-08-2016 21:55:00 19.7 C 85 % 17.11 C
265 19-08-2016 22:00:00 19.7 C 85 % 17.11 C
266 19-08-2016 22:05:00 19.7 C 85 % 17.11 C
267 19-08-2016 22:10:00 19.7 C 85 % 17.11 C
268 19-08-2016 22:15:00 19.6 C 85 % 17.01 C
269 19-08-2016 22:20:00 19.6 C 85 % 17.01 C
270 19-08-2016 22:25:00 19.6 C 85 % 17.01 C
271 19-08-2016 22:30:00 19.4 C 86 % 17 C
272 19-08-2016 22:35:00 19.4 C 85 % 16.81 C
273 19-08-2016 22:40:00 19.4 C 85 % 16.81 C
274 19-08-2016 22:45:00 19.3 C 86 % 16.9 C
275 19-08-2016 22:50:00 19.3 C 85 % 16.72 C
Sensor: Nr:Datum:Temp:Feuchte:Taupunkt:
Aussen-T/F 276 19-08-2016 22:55:00 19.3 C 85 % 16.72 C
277 19-08-2016 23:00:00 19.2 C 86 % 16.8 C
278 19-08-2016 23:05:00 19.2 C 85 % 16.62 C
279 19-08-2016 23:10:00 19.2 C 86 % 16.8 C
280 19-08-2016 23:15:00 19.2 C 86 % 16.8 C
281 19-08-2016 23:20:00 19.1 C 86 % 16.7 C
282 19-08-2016 23:25:00 19.1 C 86 % 16.7 C
283 19-08-2016 23:30:00 19.1 C 85 % 16.52 C
284 19-08-2016 23:35:00 19.1 C 85 % 16.52 C
285 19-08-2016 23:40:00 19.1 C 85 % 16.52 C
286 19-08-2016 23:45:00 19.1 C 85 % 16.52 C
287 19-08-2016 23:50:00 19.1 C 85 % 16.52 C
288 19-08-2016 23:55:00 19.1 C 85 % 16.52 C

Legende:
   Min
   Max


Maximal/Minimal-Werte vom 19.08.2016 - 19.08.2016

Sensor Min Max Avg
Temp
(Aussen-T/F)
14.7 °C
19-08-2016  04:05:00
25.2 °C
19-08-2016  15:25:00
19.36 °C
Feuchte
(Aussen-T/F)
60 %
19-08-2016  13:30:00
96 %
19-08-2016  07:10:00
83.52 %
Taupunkt
(Aussen-T/F)
13.58 C
19-08-2016  04:05:00
20.38 C
19-08-2016  17:55:00
16.27 C

Die Daten stammen von einer Davis Vantage Pro 2 Wetter-Station und werden unter Linux mit der Software wview2wettercgi und aufbereitet. Alle Angaben erfolgen ohne Gewähr für ihre Vollständigkeit oder Richtigkeit.
Kontakt: Rainer Krienke krienke@uni-koblenz.de . Meine Webseiten an der Uni Koblenz oder privat.
Version: $Revision: 0.78 $